createdAt,value
2022-11-12T00:00:48.124Z,5.72
2022-11-12T00:03:34.451Z,4.93
2022-11-12T00:06:20.865Z,5.45
2022-11-12T00:09:07.376Z,5.22
2022-11-12T00:11:53.553Z,5.43
2022-11-12T00:14:39.981Z,5.43
2022-11-12T00:17:28.134Z,5.00
2022-11-12T00:20:14.586Z,5.03
2022-11-12T00:23:01.074Z,5.40
2022-11-12T00:25:47.685Z,5.03
2022-11-12T00:28:38.021Z,4.70
2022-11-12T00:31:24.889Z,5.78
2022-11-12T00:34:12.618Z,5.32
2022-11-12T00:36:59.447Z,5.68
2022-11-12T00:39:45.993Z,5.20
2022-11-12T00:42:32.859Z,5.55
2022-11-12T00:45:19.273Z,5.25
2022-11-12T00:48:05.685Z,5.55
2022-11-12T00:51:00.537Z,5.55
2022-11-12T00:53:48.760Z,5.57
2022-11-12T00:56:35.849Z,6.15
2022-11-12T00:59:22.198Z,5.53
2022-11-12T01:02:08.680Z,5.68
2022-11-12T01:04:54.997Z,4.93
2022-11-12T01:07:43.281Z,5.50
2022-11-12T01:10:29.829Z,5.97
2022-11-12T01:13:16.459Z,5.45
2022-11-12T01:16:07.263Z,5.85
2022-11-12T01:18:54.841Z,6.05
2022-11-12T01:21:43.685Z,5.38
2022-11-12T01:24:31.371Z,6.13
2022-11-12T01:27:17.575Z,6.30
2022-11-12T01:30:04.571Z,6.60
2022-11-12T01:32:50.761Z,7.32
2022-11-12T01:35:36.968Z,5.75
2022-11-12T01:38:23.766Z,7.60
2022-11-12T01:41:14.394Z,6.75
2022-11-12T01:44:16.630Z,7.07
2022-11-12T01:47:07.649Z,6.60
2022-11-12T01:49:57.515Z,7.85
2022-11-12T01:52:47.321Z,7.68
2022-11-12T01:55:37.618Z,7.40
2022-11-12T01:58:30.673Z,6.60
2022-11-12T02:01:16.863Z,7.35
2022-11-12T02:04:02.996Z,8.18
2022-11-12T02:06:51.945Z,7.80
2022-11-12T02:09:38.633Z,8.32
2022-11-12T02:12:42.558Z,7.90
2022-11-12T02:15:30.594Z,8.10
2022-11-12T02:18:17.322Z,8.30
2022-11-12T02:21:08.355Z,8.45
2022-11-12T02:24:04.780Z,8.50
2022-11-12T02:26:54.653Z,8.77
2022-11-12T02:29:46.112Z,8.18
2022-11-12T02:32:32.519Z,8.93
2022-11-12T02:35:18.876Z,8.52
2022-11-12T02:38:05.988Z,9.48
2022-11-12T02:40:54.063Z,9.23
2022-11-12T02:43:40.536Z,9.00
2022-11-12T02:46:26.941Z,9.32
2022-11-12T02:49:13.340Z,9.20
2022-11-12T02:51:59.817Z,9.50
2022-11-12T02:54:46.327Z,9.70
2022-11-12T02:57:34.187Z,9.30
2022-11-12T03:00:20.592Z,9.55
2022-11-12T03:03:07.042Z,9.40
2022-11-12T03:05:57.958Z,9.10
2022-11-12T03:08:44.378Z,9.98
2022-11-12T03:11:30.569Z,9.60
2022-11-12T03:14:18.604Z,9.77
2022-11-12T03:17:05.304Z,10.98
2022-11-12T03:19:51.450Z,11.10
2022-11-12T03:22:38.149Z,11.27
2022-11-12T03:25:25.018Z,10.52
2022-11-12T03:28:13.947Z,11.57
2022-11-12T03:31:02.307Z,11.65
2022-11-12T03:33:48.855Z,10.90
2022-11-12T03:36:35.286Z,10.80
2022-11-12T03:39:21.809Z,12.75
2022-11-12T03:42:08.273Z,11.65
2022-11-12T03:44:54.601Z,11.52
2022-11-12T03:47:44.378Z,11.75
2022-11-12T03:50:31.407Z,10.40
2022-11-12T03:53:17.875Z,11.50
2022-11-12T03:56:04.235Z,10.57
2022-11-12T03:58:50.909Z,10.60
2022-11-12T04:01:37.479Z,11.40
2022-11-12T04:04:45.037Z,11.13
2022-11-12T04:07:49.211Z,10.23
2022-11-12T04:10:36.960Z,10.68
2022-11-12T04:13:28.126Z,10.80
2022-11-12T04:16:33.948Z,10.52
2022-11-12T04:19:38.041Z,10.00
2022-11-12T04:22:25.817Z,10.30
2022-11-12T04:25:29.633Z,10.55
2022-11-12T04:28:15.937Z,10.23
2022-11-12T04:31:01.406Z,11.10
2022-11-12T04:33:47.718Z,10.13
2022-11-12T04:36:34.369Z,9.60
2022-11-12T04:39:21.833Z,10.13
2022-11-12T04:42:27.375Z,9.57
2022-11-12T04:45:13.823Z,10.00
2022-11-12T04:48:00.430Z,9.50
2022-11-12T04:50:50.168Z,9.38
2022-11-12T04:53:36.293Z,10.00
2022-11-12T04:56:24.301Z,10.32
2022-11-12T04:59:10.700Z,11.13
2022-11-12T05:01:57.152Z,10.27
2022-11-12T05:04:43.457Z,9.88
2022-11-12T05:07:29.885Z,10.13
2022-11-12T05:10:16.932Z,10.70
2022-11-12T05:13:04.642Z,10.82
2022-11-12T05:15:51.117Z,10.93
2022-11-12T05:18:37.651Z,11.48
2022-11-12T05:21:43.641Z,11.48
2022-11-12T05:24:41.531Z,10.95
2022-11-12T05:27:28.873Z,11.55
2022-11-12T05:30:16.760Z,12.05
2022-11-12T05:33:03.205Z,12.13
2022-11-12T05:35:49.506Z,11.38
2022-11-12T05:38:38.078Z,11.23
2022-11-12T05:41:24.508Z,11.18
2022-11-12T05:44:11.083Z,11.57
2022-11-12T05:46:58.880Z,12.05
2022-11-12T05:49:45.341Z,12.43
2022-11-12T05:52:31.792Z,11.60
2022-11-12T05:55:18.288Z,10.57
2022-11-12T05:58:06.333Z,10.60
2022-11-12T06:00:52.552Z,11.60
2022-11-12T06:03:40.792Z,10.68
2022-11-12T06:06:27.319Z,9.82
2022-11-12T06:09:14.012Z,11.65
2022-11-12T06:12:00.391Z,11.88
2022-11-12T06:14:46.907Z,11.02
2022-11-12T06:17:33.389Z,10.82
2022-11-12T06:20:21.533Z,10.65
2022-11-12T06:23:07.885Z,10.52
2022-11-12T06:25:54.324Z,11.52
2022-11-12T06:28:40.783Z,10.65
2022-11-12T06:31:27.271Z,9.77
2022-11-12T06:34:13.654Z,10.63
2022-11-12T06:37:01.400Z,10.35
2022-11-12T06:39:47.827Z,10.80
2022-11-12T06:42:35.012Z,10.90
2022-11-12T06:45:21.390Z,10.32
2022-11-12T06:48:07.846Z,11.05
2022-11-12T06:50:54.449Z,10.85
2022-11-12T06:53:42.283Z,10.07
2022-11-12T06:56:28.522Z,10.02
2022-11-12T06:59:15.173Z,9.55
2022-11-12T07:02:01.702Z,10.23
2022-11-12T07:04:48.035Z,10.63
2022-11-12T07:07:34.552Z,10.57
2022-11-12T07:10:22.149Z,10.73
2022-11-12T07:13:08.621Z,9.93
2022-11-12T07:15:58.130Z,11.07
2022-11-12T07:18:44.293Z,9.73
2022-11-12T07:21:30.954Z,10.63
2022-11-12T07:24:17.293Z,10.75
2022-11-12T07:27:05.260Z,10.75
2022-11-12T07:29:51.490Z,10.45
2022-11-12T07:32:43.997Z,9.60
2022-11-12T07:35:32.360Z,10.05
2022-11-12T07:38:19.037Z,10.60
2022-11-12T07:41:07.142Z,9.77
2022-11-12T07:43:54.911Z,9.65
2022-11-12T07:46:41.453Z,9.15
2022-11-12T07:49:27.774Z,9.60
2022-11-12T07:52:13.958Z,9.45
2022-11-12T07:55:00.523Z,9.48
2022-11-12T07:57:46.930Z,9.75
2022-11-12T08:00:34.434Z,8.38
2022-11-12T08:03:21.366Z,9.15
2022-11-12T08:06:08.452Z,9.70
2022-11-12T08:08:55.459Z,8.23
2022-11-12T08:11:42.307Z,8.35
2022-11-12T08:14:28.661Z,9.13
2022-11-12T08:17:16.611Z,9.43
2022-11-12T08:20:03.144Z,8.82
2022-11-12T08:22:49.897Z,9.15
2022-11-12T08:25:36.729Z,8.20
2022-11-12T08:28:23.433Z,8.95
2022-11-12T08:31:12.619Z,9.70
2022-11-12T08:34:11.837Z,9.35
2022-11-12T08:36:58.040Z,9.00
2022-11-12T08:39:44.350Z,9.02
2022-11-12T08:42:30.905Z,9.30
2022-11-12T08:45:17.450Z,9.40
2022-11-12T08:48:05.600Z,10.00
2022-11-12T08:50:53.302Z,9.02
2022-11-12T08:53:39.563Z,10.55
2022-11-12T08:56:26.270Z,9.45
2022-11-12T08:59:12.593Z,9.27
2022-11-12T09:01:59.302Z,10.05
2022-11-12T09:04:45.848Z,9.45
2022-11-12T09:07:49.429Z,9.30
2022-11-12T09:10:36.904Z,9.30
2022-11-12T09:13:23.438Z,8.48
2022-11-12T09:16:11.376Z,8.13
2022-11-12T09:18:57.772Z,8.88
2022-11-12T09:21:44.184Z,8.30
2022-11-12T09:24:32.144Z,8.15
2022-11-12T09:27:18.398Z,8.95
2022-11-12T09:30:06.562Z,9.00
2022-11-12T09:32:58.413Z,8.13
2022-11-12T09:35:45.463Z,7.03
2022-11-12T09:38:32.070Z,7.15
2022-11-12T09:41:26.637Z,7.05
2022-11-12T09:44:16.753Z,7.20
2022-11-12T09:47:07.936Z,7.45
2022-11-12T09:50:02.790Z,6.28
2022-11-12T09:52:56.162Z,6.70
2022-11-12T09:55:45.633Z,6.63
2022-11-12T09:58:33.214Z,7.32
2022-11-12T10:01:24.849Z,7.18
2022-11-12T10:04:29.422Z,6.63
2022-11-12T10:07:25.758Z,7.45
2022-11-12T10:10:16.550Z,7.95
2022-11-12T10:13:15.528Z,8.05
2022-11-12T10:16:42.190Z,8.77
2022-11-12T10:19:50.635Z,8.60
2022-11-12T10:22:51.205Z,8.25
2022-11-12T10:25:38.516Z,8.48
2022-11-12T10:28:31.971Z,9.75
2022-11-12T10:31:23.730Z,8.98
2022-11-12T10:34:18.559Z,8.82
2022-11-12T10:37:07.051Z,8.55
2022-11-12T10:39:54.153Z,9.00
2022-11-12T10:42:57.453Z,9.27
2022-11-12T10:45:43.909Z,9.43
2022-11-12T10:48:34.199Z,9.50
2022-11-12T10:51:26.876Z,9.13
2022-11-12T10:54:30.344Z,8.90
2022-11-12T10:57:25.659Z,9.65
2022-11-12T11:00:21.459Z,9.65
2022-11-12T11:03:17.523Z,8.90
2022-11-12T11:06:07.596Z,9.30
2022-11-12T11:08:55.207Z,8.95
2022-11-12T11:11:50.085Z,10.13
2022-11-12T11:14:42.723Z,8.80
2022-11-12T11:17:29.154Z,8.65
2022-11-12T11:20:25.718Z,8.70
2022-11-12T11:23:21.255Z,9.63
2022-11-12T11:26:20.384Z,9.10
2022-11-12T11:29:25.455Z,8.20
2022-11-12T11:32:23.964Z,8.95
2022-11-12T11:35:21.640Z,9.07
2022-11-12T11:38:22.159Z,8.15
2022-11-12T11:41:22.435Z,9.05
2022-11-12T11:44:18.036Z,8.27
2022-11-12T11:47:17.369Z,7.22
2022-11-12T11:50:17.369Z,7.32
2022-11-12T11:53:16.874Z,7.10
2022-11-12T11:56:10.385Z,7.38
2022-11-12T11:59:20.450Z,7.68
2022-11-12T12:02:26.057Z,6.78
2022-11-12T12:05:28.982Z,6.93
2022-11-12T12:08:22.362Z,7.20
2022-11-12T12:11:16.871Z,7.15
2022-11-12T12:14:23.426Z,7.30
2022-11-12T12:17:20.059Z,6.75
2022-11-12T12:20:17.533Z,6.28
2022-11-12T12:23:06.936Z,6.88
2022-11-12T12:26:00.253Z,6.70
2022-11-12T12:28:54.763Z,6.32
2022-11-12T12:31:48.114Z,6.78
2022-11-12T12:34:39.291Z,7.03
2022-11-12T12:37:32.631Z,7.03
2022-11-12T12:40:23.497Z,6.07
2022-11-12T12:43:18.771Z,6.30
2022-11-12T12:46:07.881Z,5.35
2022-11-12T12:48:56.263Z,4.70
2022-11-12T12:51:42.945Z,4.75
2022-11-12T12:54:58.322Z,5.13
2022-11-12T12:57:45.244Z,5.03
2022-11-12T13:00:39.140Z,3.97
2022-11-12T13:03:59.569Z,3.10
2022-11-12T13:06:54.871Z,2.40
2022-11-12T13:09:41.349Z,2.90
2022-11-12T13:13:09.862Z,2.30
2022-11-12T13:15:57.429Z,3.10
2022-11-12T13:19:11.122Z,3.20
2022-11-12T13:22:30.892Z,2.30
2022-11-12T13:25:29.993Z,2.30
2022-11-12T13:28:16.190Z,2.75
2022-11-12T13:31:05.319Z,3.15
2022-11-12T13:33:51.660Z,2.20
2022-11-12T13:36:38.360Z,2.67
2022-11-12T13:39:24.946Z,2.45
2022-11-12T13:42:33.160Z,2.33
2022-11-12T13:45:22.459Z,3.05
2022-11-12T13:48:10.880Z,3.20
2022-11-12T13:51:02.411Z,2.42
2022-11-12T13:53:49.115Z,2.10
2022-11-12T13:56:37.349Z,2.05
2022-11-12T13:59:26.553Z,2.50
2022-11-12T14:02:22.138Z,2.50
2022-11-12T14:05:15.454Z,3.95
2022-11-12T14:08:19.444Z,3.30
2022-11-12T14:11:20.250Z,2.80
2022-11-12T14:14:15.551Z,3.65
2022-11-12T14:17:21.976Z,3.15
2022-11-12T14:20:28.951Z,3.80
2022-11-12T14:23:23.187Z,3.78
2022-11-12T14:26:12.289Z,3.40
2022-11-12T14:28:59.224Z,4.00
2022-11-12T14:31:45.844Z,5.07
2022-11-12T14:34:35.100Z,4.75
2022-11-12T14:37:43.416Z,5.20
2022-11-12T14:40:31.957Z,4.85
2022-11-12T14:43:27.377Z,4.88
2022-11-12T14:46:24.359Z,5.03
2022-11-12T14:49:19.157Z,5.15
2022-11-12T14:52:12.196Z,4.50
2022-11-12T14:55:00.997Z,5.07
2022-11-12T14:57:47.579Z,4.78
2022-11-12T15:00:43.125Z,4.80
2022-11-12T15:03:33.694Z,4.82
2022-11-12T15:06:28.936Z,6.20
2022-11-12T15:09:21.684Z,5.30
2022-11-12T15:12:12.674Z,4.72
2022-11-12T15:15:08.790Z,5.68
2022-11-12T15:18:00.132Z,5.93
2022-11-12T15:20:46.908Z,6.05
2022-11-12T15:23:33.323Z,6.82
2022-11-12T15:26:32.332Z,7.18
2022-11-12T15:29:27.978Z,7.38
2022-11-12T15:32:33.823Z,5.95
2022-11-12T15:35:34.601Z,7.22
2022-11-12T15:38:26.620Z,6.40
2022-11-12T15:41:26.758Z,6.32
2022-11-12T15:44:13.876Z,7.43
2022-11-12T15:47:00.742Z,11.93
2022-11-12T15:49:51.504Z,9.57
2022-11-12T15:52:37.692Z,37.83
2022-11-12T15:55:23.939Z,16.55
2022-11-12T15:58:17.370Z,11.07
2022-11-12T16:01:04.989Z,7.40
2022-11-12T16:03:51.198Z,6.93
2022-11-12T16:06:37.721Z,7.00
2022-11-12T16:09:24.151Z,5.50
2022-11-12T16:12:12.532Z,5.47
2022-11-12T16:15:01.272Z,6.43
2022-11-12T16:17:49.691Z,5.22
2022-11-12T16:20:36.806Z,4.68
2022-11-12T16:23:23.188Z,4.95
2022-11-12T16:26:14.498Z,5.32
2022-11-12T16:29:00.884Z,6.43
2022-11-12T16:31:48.380Z,7.80
2022-11-12T16:34:34.693Z,8.38
2022-11-12T16:37:20.966Z,7.82
2022-11-12T16:40:10.758Z,8.38
2022-11-12T16:42:57.300Z,9.68
2022-11-12T16:45:45.452Z,9.60
2022-11-12T16:48:33.499Z,10.00
2022-11-12T16:51:21.771Z,11.25
2022-11-12T16:54:08.689Z,10.70
2022-11-12T16:56:55.138Z,10.70
2022-11-12T16:59:41.462Z,12.48
2022-11-12T17:02:28.285Z,11.65
2022-11-12T17:05:19.798Z,12.07
2022-11-12T17:08:06.380Z,11.13
2022-11-12T17:10:52.836Z,12.75
2022-11-12T17:13:39.737Z,11.90
2022-11-12T17:16:26.040Z,13.48
2022-11-12T17:19:12.328Z,11.50
2022-11-12T17:22:00.291Z,11.10
2022-11-12T17:24:47.031Z,10.85
2022-11-12T17:27:33.512Z,11.40
2022-11-12T17:30:20.261Z,11.18
2022-11-12T17:33:06.708Z,11.63
2022-11-12T17:35:53.038Z,10.60
2022-11-12T17:38:41.131Z,10.75
2022-11-12T17:41:28.852Z,11.07
2022-11-12T17:44:17.607Z,11.00
2022-11-12T17:47:04.157Z,11.75
2022-11-12T17:49:50.712Z,11.25
2022-11-12T17:52:37.318Z,11.45
2022-11-12T17:55:25.013Z,11.77
2022-11-12T17:58:11.491Z,11.63
2022-11-12T18:01:05.409Z,10.77
2022-11-12T18:03:54.597Z,11.07
2022-11-12T18:06:40.967Z,12.30
2022-11-12T18:09:27.394Z,11.80
2022-11-12T18:12:16.314Z,10.63
2022-11-12T18:15:02.852Z,11.75
2022-11-12T18:17:49.404Z,11.60
2022-11-12T18:20:36.774Z,12.18
2022-11-12T18:23:23.829Z,11.73
2022-11-12T18:26:12.084Z,12.73
2022-11-12T18:29:00.573Z,12.23
2022-11-12T18:31:47.237Z,12.13
2022-11-12T18:34:33.431Z,12.73
2022-11-12T18:37:19.861Z,12.50
2022-11-12T18:40:06.955Z,12.55
2022-11-12T18:42:54.412Z,12.70
2022-11-12T18:45:41.932Z,11.82
2022-11-12T18:48:29.573Z,12.35
2022-11-12T18:51:17.774Z,12.20
2022-11-12T18:54:04.830Z,10.85
2022-11-12T18:56:51.358Z,11.57
2022-11-12T18:59:37.867Z,11.85
2022-11-12T19:02:25.938Z,12.60
2022-11-12T19:05:12.183Z,12.73
2022-11-12T19:07:59.046Z,12.32
2022-11-12T19:10:45.225Z,12.80
2022-11-12T19:13:32.481Z,12.90
2022-11-12T19:16:20.029Z,12.65
2022-11-12T19:19:09.042Z,12.25
2022-11-12T19:21:55.673Z,12.90
2022-11-12T19:24:42.014Z,12.82
2022-11-12T19:27:28.424Z,12.38
2022-11-12T19:30:15.201Z,11.15
2022-11-12T19:33:01.243Z,12.60
2022-11-12T19:35:49.101Z,12.65
2022-11-12T19:38:35.373Z,12.75
2022-11-12T19:41:21.884Z,12.55
2022-11-12T19:44:08.480Z,14.20
2022-11-12T19:46:54.698Z,13.45
2022-11-12T19:49:41.129Z,13.63
2022-11-12T19:52:28.991Z,14.27
2022-11-12T19:55:15.891Z,13.18
2022-11-12T19:58:02.189Z,14.70
2022-11-12T20:00:48.457Z,14.88
2022-11-12T20:03:34.707Z,14.10
2022-11-12T20:06:25.390Z,13.80
2022-11-12T20:09:13.707Z,14.48
2022-11-12T20:12:00.376Z,13.55
2022-11-12T20:14:46.593Z,13.88
2022-11-12T20:17:33.314Z,14.52
2022-11-12T20:20:19.645Z,14.07
2022-11-12T20:23:06.089Z,12.90
2022-11-12T20:25:54.376Z,13.32
2022-11-12T20:28:43.289Z,13.02
2022-11-12T20:31:29.832Z,13.30
2022-11-12T20:34:16.254Z,13.90
2022-11-12T20:37:02.486Z,13.77
2022-11-12T20:39:49.180Z,13.13
2022-11-12T20:42:37.045Z,12.95
2022-11-12T20:45:23.715Z,13.57
2022-11-12T20:48:10.248Z,13.18
2022-11-12T20:51:23.225Z,12.77
2022-11-12T20:54:11.019Z,13.18
2022-11-12T20:56:57.431Z,13.80
2022-11-12T20:59:44.995Z,13.40
2022-11-12T21:02:31.338Z,13.45
2022-11-12T21:05:17.726Z,13.27
2022-11-12T21:08:03.992Z,14.57
2022-11-12T21:10:50.814Z,14.27
2022-11-12T21:13:38.419Z,14.10
2022-11-12T21:16:26.207Z,13.77
2022-11-12T21:19:12.508Z,13.10
2022-11-12T21:21:59.087Z,13.48
2022-11-12T21:24:45.534Z,13.52
2022-11-12T21:27:33.511Z,13.70
2022-11-12T21:30:20.718Z,13.43
2022-11-12T21:33:08.552Z,12.32
2022-11-12T21:35:54.964Z,12.52
2022-11-12T21:38:41.485Z,13.35
2022-11-12T21:41:31.020Z,12.85
2022-11-12T21:44:17.566Z,11.95
2022-11-12T21:47:04.336Z,13.82
2022-11-12T21:49:52.120Z,12.57
2022-11-12T21:52:38.460Z,11.63
2022-11-12T21:55:25.028Z,12.02
2022-11-12T21:58:11.488Z,12.30
2022-11-12T22:01:07.823Z,11.38
2022-11-12T22:03:56.123Z,11.43
2022-11-12T22:06:43.923Z,11.38
2022-11-12T22:09:30.243Z,11.15
2022-11-12T22:12:16.861Z,10.93
2022-11-12T22:15:03.331Z,11.10
2022-11-12T22:17:49.716Z,10.85
2022-11-12T22:20:36.202Z,10.65
2022-11-12T22:23:23.876Z,9.48
2022-11-12T22:26:12.741Z,9.80
2022-11-12T22:29:00.008Z,10.13
2022-11-12T22:31:46.564Z,9.20
2022-11-12T22:34:32.870Z,9.82
2022-11-12T22:37:19.531Z,9.07
2022-11-12T22:40:13.183Z,9.30
2022-11-12T22:42:59.967Z,8.98
2022-11-12T22:45:46.452Z,9.07
2022-11-12T22:48:33.135Z,9.05
2022-11-12T22:51:21.959Z,9.05
2022-11-12T22:54:09.320Z,8.52
2022-11-12T22:56:56.795Z,8.73
2022-11-12T22:59:43.310Z,8.68
2022-11-12T23:02:29.952Z,8.80
2022-11-12T23:05:16.212Z,8.93
2022-11-12T23:08:02.693Z,8.70
2022-11-12T23:10:49.314Z,8.80
2022-11-12T23:13:37.917Z,8.65
2022-11-12T23:16:25.782Z,8.70
2022-11-12T23:19:12.282Z,9.90
2022-11-12T23:21:58.664Z,8.70
2022-11-12T23:24:44.894Z,9.73
2022-11-12T23:27:31.498Z,9.75
2022-11-12T23:30:19.558Z,9.18
2022-11-12T23:33:05.953Z,8.68
2022-11-12T23:35:52.503Z,9.10
2022-11-12T23:38:39.080Z,9.80
2022-11-12T23:41:27.285Z,9.85
2022-11-12T23:44:13.873Z,9.73
2022-11-12T23:47:01.624Z,10.15
2022-11-12T23:49:48.045Z,9.90
2022-11-12T23:52:34.646Z,10.18
2022-11-12T23:55:21.064Z,9.80
2022-11-12T23:58:16.676Z,10.63
